Time;durP1;ratioP1;P1;durP2;ratioP2;P2;SDS_P1;SDS_P2;PMS_P1;PMS_P2;Temp;Humidity;BMP_temperature;BMP_pressure;BME280_temperature;BME280_humidity;BME280_pressure;Samples;Min_cycle;Max_cycle;Signal;HPM_P1;HPM_P2
2020/12/24 00:01:07;;;;;;;10.85;8.10;;;10.50;68.40;;;;;;5006013;28;20028;-65
2020/12/24 00:03:33;;;;;;;12.57;9.40;;;10.50;68.40;;;;;;5006117;28;20035;-64
2020/12/24 00:05:59;;;;;;;12.70;7.82;;;10.50;68.30;;;;;;5005907;28;20314;-67
2020/12/24 00:08:24;;;;;;;12.30;8.55;;;10.50;68.30;;;;;;5005853;28;20050;-67
2020/12/24 00:10:50;;;;;;;13.85;7.80;;;10.50;68.20;;;;;;5005803;28;20026;-66
2020/12/24 00:13:17;;;;;;;13.60;8.27;;;10.50;68.30;;;;;;5005745;28;20029;-66
2020/12/24 00:15:43;;;;;;;10.45;7.90;;;10.50;68.40;;;;;;5005729;28;20217;-67
2020/12/24 00:18:10;;;;;;;11.52;7.93;;;10.50;68.30;;;;;;5005474;28;20038;-67
2020/12/24 00:20:36;;;;;;;11.20;7.78;;;10.50;68.40;;;;;;5005637;28;20053;-65
2020/12/24 00:23:02;;;;;;;12.48;8.10;;;10.50;68.20;;;;;;5005465;28;20237;-66
2020/12/24 00:25:28;;;;;;;12.18;8.25;;;10.50;68.30;;;;;;5005543;28;20028;-66
2020/12/24 00:27:54;;;;;;;13.50;8.55;;;10.50;68.40;;;;;;5005481;28;20026;-66
2020/12/24 00:30:19;;;;;;;11.98;8.20;;;10.40;68.50;;;;;;5005417;28;20029;-66
2020/12/24 00:32:45;;;;;;;10.98;7.78;;;10.50;68.30;;;;;;5005400;28;20089;-66
2020/12/24 00:35:11;;;;;;;10.65;7.55;;;10.50;68.30;;;;;;5005348;28;20444;-67
2020/12/24 00:37:37;;;;;;;11.45;7.50;;;10.50;68.40;;;;;;5005314;28;20045;-66
2020/12/24 00:40:04;;;;;;;11.40;7.65;;;10.40;68.40;;;;;;5005287;28;20367;-66
2020/12/24 00:42:30;;;;;;;10.68;7.65;;;10.50;68.40;;;;;;5005198;28;20057;-64
2020/12/24 00:44:56;;;;;;;9.93;6.97;;;10.50;68.30;;;;;;5005182;28;20026;-67
2020/12/24 00:47:22;;;;;;;10.13;7.95;;;10.40;68.20;;;;;;5005097;28;20299;-66
2020/12/24 00:49:48;;;;;;;9.63;6.95;;;10.50;68.30;;;;;;5005090;28;20015;-66
2020/12/24 00:52:13;;;;;;;11.73;7.97;;;10.40;68.20;;;;;;5005015;28;20326;-66
2020/12/24 00:54:39;;;;;;;14.27;8.85;;;10.50;68.30;;;;;;5004984;28;20129;-65
2020/12/24 00:57:05;;;;;;;12.13;7.90;;;10.40;68.50;;;;;;5004977;28;20026;-65
2020/12/24 00:59:30;;;;;;;10.18;7.72;;;10.40;68.20;;;;;;5004949;28;20068;-65
2020/12/24 01:01:56;;;;;;;12.07;8.25;;;10.40;68.30;;;;;;5003930;28;20022;-66
2020/12/24 01:04:22;;;;;;;10.98;7.75;;;10.40;68.30;;;;;;5004799;28;20025;-65
2020/12/24 01:06:47;;;;;;;12.13;8.05;;;10.40;68.30;;;;;;5004805;28;20046;-66
2020/12/24 01:09:13;;;;;;;10.60;7.97;;;10.40;68.50;;;;;;5004780;28;20085;-64
2020/12/24 01:11:39;;;;;;;11.05;7.80;;;10.40;68.30;;;;;;5004695;28;20017;-63
2020/12/24 01:14:05;;;;;;;13.25;8.50;;;10.40;68.40;;;;;;5004863;28;20049;-65
2020/12/24 01:16:31;;;;;;;14.52;8.88;;;10.40;68.40;;;;;;5004542;28;20052;-66
2020/12/24 01:18:57;;;;;;;11.13;7.22;;;10.40;68.50;;;;;;5004696;28;20298;-67
2020/12/24 01:21:23;;;;;;;11.18;7.82;;;10.40;68.50;;;;;;5004526;28;20086;-68
2020/12/24 01:23:48;;;;;;;13.25;7.95;;;10.40;68.30;;;;;;5004427;28;20034;-67
2020/12/24 01:26:14;;;;;;;13.98;8.73;;;10.40;68.40;;;;;;5004442;28;20206;-68
2020/12/24 01:28:40;;;;;;;11.30;7.88;;;10.40;68.40;;;;;;5004385;28;20030;-64
2020/12/24 01:31:06;;;;;;;11.05;7.72;;;10.40;68.30;;;;;;5004361;28;20222;-66
2020/12/24 01:33:31;;;;;;;12.32;8.55;;;10.40;68.30;;;;;;5004287;28;20026;-66
2020/12/24 01:35:59;;;;;;;11.23;8.55;;;10.40;68.30;;;;;;5004260;28;20030;-64
2020/12/24 01:38:25;;;;;;;11.07;8.00;;;10.40;68.30;;;;;;5004235;28;20085;-66
2020/12/24 01:40:59;;;;;;;10.15;7.25;;;10.40;68.40;;;;;;5004131;28;20045;-66
2020/12/24 01:43:25;;;;;;;12.80;8.57;;;10.40;68.40;;;;;;5004062;28;20023;-66
2020/12/24 01:45:53;;;;;;;10.00;8.60;;;10.40;68.30;;;;;;5004034;28;20237;-65
2020/12/24 01:48:19;;;;;;;12.20;8.57;;;10.40;68.30;;;;;;5003997;28;20085;-65
2020/12/24 01:50:45;;;;;;;11.45;8.48;;;10.40;68.40;;;;;;5003943;28;20077;-67
2020/12/24 01:53:17;;;;;;;9.90;7.45;;;10.40;68.50;;;;;;5003889;28;20026;-66
2020/12/24 01:55:42;;;;;;;10.45;6.88;;;10.40;68.50;;;;;;5003866;28;20018;-67
2020/12/24 01:58:08;;;;;;;11.40;8.00;;;10.40;68.50;;;;;;5003835;28;20229;-63
2020/12/24 02:00:34;;;;;;;10.13;7.20;;;10.40;68.40;;;;;;5003752;28;20045;-66
2020/12/24 02:03:00;;;;;;;9.38;7.50;;;10.40;68.40;;;;;;5003627;28;20085;-66
2020/12/24 02:05:25;;;;;;;12.18;8.45;;;10.40;68.30;;;;;;5003671;28;20014;-67
2020/12/24 02:07:51;;;;;;;10.73;8.05;;;10.40;68.30;;;;;;5003619;28;20322;-66
2020/12/24 02:10:17;;;;;;;10.23;7.45;;;10.40;68.40;;;;;;5003624;28;20026;-66
2020/12/24 02:12:45;;;;;;;11.30;7.80;;;10.40;68.30;;;;;;5003437;28;20034;-66
2020/12/24 02:15:10;;;;;;;10.93;7.70;;;10.30;68.30;;;;;;5003513;28;20376;-65
2020/12/24 02:17:36;;;;;;;10.90;7.53;;;10.30;68.20;;;;;;5003304;28;20041;-65
2020/12/24 02:20:02;;;;;;;10.50;8.23;;;10.40;68.40;;;;;;5003336;28;20044;-66
2020/12/24 02:22:28;;;;;;;11.55;7.93;;;10.30;68.40;;;;;;5003309;28;20041;-67
2020/12/24 02:24:54;;;;;;;12.80;8.40;;;10.30;68.40;;;;;;5003271;28;20022;-66
2020/12/24 02:27:19;;;;;;;9.00;6.85;;;10.30;68.40;;;;;;5003297;28;20222;-66
2020/12/24 02:29:45;;;;;;;10.40;7.57;;;10.30;68.40;;;;;;5003296;28;20050;-65
2020/12/24 02:32:11;;;;;;;11.95;8.18;;;10.30;68.40;;;;;;5003198;28;20222;-67
2020/12/24 02:34:36;;;;;;;11.48;7.75;;;10.30;68.50;;;;;;5003151;28;20018;-67
2020/12/24 02:37:02;;;;;;;13.93;9.25;;;10.30;68.40;;;;;;5003074;28;20026;-66
2020/12/24 02:39:28;;;;;;;10.20;7.90;;;10.30;68.40;;;;;;5003057;28;20026;-65
2020/12/24 02:41:54;;;;;;;10.98;7.63;;;10.30;68.40;;;;;;5002957;28;20018;-66
2020/12/24 02:44:20;;;;;;;11.55;8.60;;;10.30;68.40;;;;;;5002976;28;20041;-66
2020/12/24 02:46:46;;;;;;;10.45;7.50;;;10.30;68.40;;;;;;5002990;28;20029;-65
2020/12/24 02:49:11;;;;;;;11.57;8.50;;;10.30;68.40;;;;;;5002945;28;20014;-66
2020/12/24 02:51:37;;;;;;;9.13;7.40;;;10.30;68.50;;;;;;5002913;28;20196;-68
2020/12/24 02:54:03;;;;;;;12.45;8.38;;;10.30;68.50;;;;;;5002820;28;20325;-63
2020/12/24 02:56:29;;;;;;;11.95;7.80;;;10.30;68.50;;;;;;5002818;28;20026;-64
2020/12/24 02:58:54;;;;;;;12.23;8.82;;;10.30;68.40;;;;;;5002837;28;20026;-67
2020/12/24 03:01:20;;;;;;;12.30;8.95;;;10.30;68.50;;;;;;5002758;28;20338;-66
2020/12/24 03:03:46;;;;;;;11.88;7.95;;;10.30;68.50;;;;;;5002675;28;20022;-66
2020/12/24 03:06:11;;;;;;;11.77;7.55;;;10.30;68.50;;;;;;5001449;28;20021;-64
2020/12/24 03:08:37;;;;;;;11.73;8.23;;;10.30;68.50;;;;;;5002670;28;20033;-65
2020/12/24 03:11:03;;;;;;;11.35;7.95;;;10.30;68.50;;;;;;5001386;28;20026;-64
2020/12/24 03:13:29;;;;;;;11.10;8.73;;;10.30;68.50;;;;;;5002585;28;20076;-66
2020/12/24 03:15:54;;;;;;;11.05;8.10;;;10.30;68.50;;;;;;5002613;28;20293;-67
2020/12/24 03:18:20;;;;;;;10.73;7.72;;;10.30;68.50;;;;;;5002424;28;20081;-65
2020/12/24 03:20:46;;;;;;;10.13;6.97;;;10.20;68.50;;;;;;5002550;28;20030;-66
2020/12/24 03:23:12;;;;;;;12.07;7.45;;;10.20;68.50;;;;;;5002405;28;20330;-64
2020/12/24 03:25:37;;;;;;;11.25;7.57;;;10.20;68.50;;;;;;5005643;28;20341;-67
2020/12/24 03:28:03;;;;;;;11.88;7.82;;;10.30;68.60;;;;;;5006550;28;20302;-64
2020/12/24 03:30:29;;;;;;;10.70;8.02;;;10.20;68.60;;;;;;5006536;28;20022;-66
2020/12/24 03:32:55;;;;;;;11.02;7.55;;;10.20;68.60;;;;;;5006523;28;20030;-67
2020/12/24 03:35:20;;;;;;;13.20;8.57;;;10.30;68.60;;;;;;5006489;28;20030;-65
2020/12/24 03:37:46;;;;;;;10.20;7.55;;;10.20;68.40;;;;;;5006421;28;20030;-66
2020/12/24 03:40:12;;;;;;;12.98;8.20;;;10.20;68.50;;;;;;5006324;28;20018;-65
2020/12/24 03:42:38;;;;;;;11.05;8.15;;;10.20;68.60;;;;;;5006287;28;20322;-66
2020/12/24 03:45:03;;;;;;;9.90;7.93;;;10.30;68.60;;;;;;5006296;28;20033;-65
2020/12/24 03:47:29;;;;;;;11.52;8.35;;;10.30;68.60;;;;;;5006227;28;20253;-66
2020/12/24 03:49:55;;;;;;;11.60;8.50;;;10.20;68.60;;;;;;5006190;28;20049;-66
2020/12/24 03:52:21;;;;;;;10.40;7.75;;;10.20;68.50;;;;;;5006135;28;20086;-66
2020/12/24 03:54:46;;;;;;;10.13;7.78;;;10.20;68.50;;;;;;5006148;28;20263;-67
2020/12/24 03:57:12;;;;;;;11.00;8.05;;;10.20;68.50;;;;;;5006056;28;20214;-66
2020/12/24 03:59:38;;;;;;;11.23;8.10;;;10.20;68.60;;;;;;5006046;28;20100;-67
2020/12/24 04:02:04;;;;;;;10.27;7.32;;;10.20;68.60;;;;;;5005876;28;20106;-65
2020/12/24 04:04:29;;;;;;;14.45;9.52;;;10.20;68.70;;;;;;5005953;28;20022;-66
2020/12/24 04:06:55;;;;;;;10.85;7.68;;;10.20;68.60;;;;;;5005856;28;20243;-63
2020/12/24 04:09:21;;;;;;;11.75;8.15;;;10.20;68.60;;;;;;5005819;28;20073;-66
2020/12/24 04:11:46;;;;;;;10.70;8.02;;;10.20;68.70;;;;;;5005773;28;20333;-66
2020/12/24 04:14:12;;;;;;;12.05;7.95;;;10.20;68.60;;;;;;5005693;28;20022;-66
2020/12/24 04:16:38;;;;;;;12.00;8.20;;;10.20;68.70;;;;;;5005535;28;20022;-67
2020/12/24 04:19:03;;;;;;;13.75;9.10;;;10.20;68.70;;;;;;5005684;28;20027;-66
2020/12/24 04:21:29;;;;;;;11.13;8.02;;;10.20;68.70;;;;;;5005639;28;20023;-65
2020/12/24 04:23:55;;;;;;;11.95;8.38;;;10.20;68.70;;;;;;5005511;28;20030;-63
2020/12/24 04:26:22;;;;;;;12.23;8.63;;;10.20;68.70;;;;;;5005507;28;20353;-66
2020/12/24 04:28:49;;;;;;;12.43;8.07;;;10.20;68.70;;;;;;5005533;28;20450;-66
2020/12/24 04:31:15;;;;;;;11.52;7.72;;;10.20;68.70;;;;;;5005419;28;20014;-66
2020/12/24 04:33:42;;;;;;;11.73;7.82;;;10.20;68.70;;;;;;5005438;28;20314;-68
2020/12/24 04:36:08;;;;;;;10.88;8.18;;;10.20;68.70;;;;;;5004067;28;20271;-67
2020/12/24 04:38:34;;;;;;;11.48;7.55;;;10.20;68.70;;;;;;5005283;28;20061;-65
2020/12/24 04:41:01;;;;;;;9.05;7.85;;;10.10;68.70;;;;;;5005306;28;20034;-65
2020/12/24 04:43:27;;;;;;;12.15;8.02;;;10.20;68.70;;;;;;5005200;28;20109;-66
2020/12/24 04:45:54;;;;;;;10.38;7.38;;;10.10;68.70;;;;;;5005163;28;20100;-65
2020/12/24 04:48:21;;;;;;;10.77;7.32;;;10.20;68.70;;;;;;5005153;28;20271;-65
2020/12/24 04:50:52;;;;;;;12.43;8.35;;;10.10;68.70;;;;;;5005138;28;20018;-66
2020/12/24 04:53:19;;;;;;;11.77;7.57;;;10.10;69.40;;;;;;5005040;28;20089;-67
2020/12/24 04:55:45;;;;;;;12.77;8.60;;;10.20;68.80;;;;;;5005022;28;20053;-68
2020/12/24 04:58:11;;;;;;;10.93;7.65;;;10.20;68.70;;;;;;5004982;28;20314;-65
2020/12/24 05:00:39;;;;;;;10.38;7.45;;;10.20;68.80;;;;;;5005243;28;20030;-67
2020/12/24 05:03:06;;;;;;;10.70;7.57;;;10.10;68.70;;;;;;5004793;28;20325;-66
2020/12/24 05:05:32;;;;;;;12.57;8.38;;;10.10;68.80;;;;;;5004849;28;20073;-65
2020/12/24 05:08:01;;;;;;;11.27;7.95;;;10.10;68.80;;;;;;5004824;28;20019;-65
2020/12/24 05:10:27;;;;;;;;;;;10.10;68.80;;;;;;5005217;28;20118;-66
2020/12/24 05:12:53;;;;;;;11.32;7.97;;;10.10;68.80;;;;;;5004660;28;19914;-66
2020/12/24 05:15:29;;;;;;;12.13;8.35;;;10.10;69.50;;;;;;5004643;28;20433;-65
2020/12/24 05:18:13;;;;;;;12.05;8.27;;;10.10;68.90;;;;;;5004484;28;20054;-65
2020/12/24 05:20:39;;;;;;;9.82;7.72;;;10.10;68.90;;;;;;5004591;28;20022;-65
2020/12/24 05:23:19;;;;;;;10.73;8.10;;;10.10;68.80;;;;;;5004425;28;20033;-65
2020/12/24 05:25:48;;;;;;;10.63;7.85;;;10.10;68.80;;;;;;5004476;28;20296;-64
2020/12/24 05:28:25;;;;;;;11.85;8.60;;;10.10;68.90;;;;;;5004400;28;20086;-66
2020/12/24 05:30:51;;;;;;;10.68;7.85;;;10.10;68.90;;;;;;5004388;28;20030;-66
2020/12/24 05:33:30;;;;;;;11.32;8.10;;;10.10;68.90;;;;;;5003122;28;20203;-66
2020/12/24 05:36:14;;;;;;;12.15;8.27;;;10.10;68.80;;;;;;5004270;28;20026;-66
2020/12/24 05:38:40;;;;;;;12.30;8.40;;;10.10;68.80;;;;;;5004193;28;20094;-67
2020/12/24 05:41:25;;;;;;;11.45;7.85;;;10.10;68.80;;;;;;5004149;28;20038;-66
2020/12/24 05:44:12;;;;;;;11.27;7.40;;;10.10;68.80;;;;;;5004058;28;20022;-67
2020/12/24 05:46:45;;;;;;;11.50;7.47;;;10.10;68.80;;;;;;5003898;28;20022;-65
2020/12/24 05:49:22;;;;;;;12.13;7.97;;;10.10;68.90;;;;;;5003961;28;20060;-67
2020/12/24 05:51:49;;;;;;;11.57;8.32;;;10.10;68.90;;;;;;5003987;28;20018;-66
2020/12/24 05:54:16;;;;;;;11.50;8.07;;;10.10;68.80;;;;;;5003964;28;20091;-65
2020/12/24 05:56:43;;;;;;;8.63;6.95;;;10.10;68.90;;;;;;5003845;28;20030;-65
2020/12/24 05:59:15;;;;;;;11.13;8.18;;;10.10;68.90;;;;;;5002606;28;20022;-69
2020/12/24 06:01:48;;;;;;;11.75;8.07;;;10.10;69.50;;;;;;5003759;28;20023;-67
2020/12/24 06:04:33;;;;;;;11.40;8.15;;;10.10;68.90;;;;;;5003792;28;20230;-65
2020/12/24 06:07:07;;;;;;;10.52;7.53;;;10.10;68.90;;;;;;5003705;28;20034;-66
2020/12/24 06:09:37;;;;;;;13.02;7.63;;;10.10;68.90;;;;;;5003623;28;20021;-66
2020/12/24 06:12:20;;;;;;;10.23;7.28;;;10.10;68.90;;;;;;5003507;28;20222;-64
2020/12/24 06:14:54;;;;;;;10.38;7.20;;;10.10;68.80;;;;;;5003512;28;20041;-65
2020/12/24 06:17:24;;;;;;;10.95;7.43;;;10.10;68.90;;;;;;5003355;28;20053;-66
2020/12/24 06:19:50;;;;;;;11.82;8.77;;;10.10;68.90;;;;;;5003371;28;20030;-66
2020/12/24 06:22:19;;;;;;;11.43;7.32;;;10.10;68.90;;;;;;5003304;28;20022;-66
2020/12/24 06:24:46;;;;;;;10.35;7.53;;;10.10;68.90;;;;;;5003340;28;20203;-67
2020/12/24 06:27:50;;;;;;;11.93;8.30;;;10.10;69.00;;;;;;5003234;28;20044;-64
2020/12/24 06:30:29;;;;;;;10.70;7.75;;;10.00;68.90;;;;;;5003224;28;20341;-66
2020/12/24 06:32:55;;;;;;;10.65;7.50;;;10.10;69.00;;;;;;5003210;28;20019;-67
2020/12/24 06:35:40;;;;;;;10.32;7.35;;;10.10;69.00;;;;;;5003191;28;20037;-67
2020/12/24 06:38:08;;;;;;;12.20;8.23;;;10.10;69.00;;;;;;5003148;28;20026;-66
2020/12/24 06:40:40;;;;;;;9.68;7.60;;;10.10;68.90;;;;;;5003102;28;20203;-65
2020/12/24 06:43:09;;;;;;;10.32;7.90;;;10.10;68.90;;;;;;5003008;28;20037;-66
2020/12/24 06:45:35;;;;;;;10.88;7.60;;;10.10;68.90;;;;;;5001808;28;20121;-64
2020/12/24 06:48:12;;;;;;;11.70;7.85;;;10.00;68.80;;;;;;5002962;28;20037;-66
2020/12/24 06:50:43;;;;;;;10.95;7.95;;;10.10;68.90;;;;;;5002930;28;20022;-65
2020/12/24 06:53:23;;;;;;;10.57;7.32;;;10.00;68.80;;;;;;5002845;28;20030;-64
2020/12/24 06:56:14;;;;;;;9.88;7.50;;;10.00;68.90;;;;;;5002878;28;20065;-65
2020/12/24 06:58:50;;;;;;;9.55;6.82;;;10.00;68.90;;;;;;5002236;28;20021;-68
2020/12/24 07:01:17;;;;;;;12.13;8.88;;;10.10;68.90;;;;;;5002791;28;20041;-66
2020/12/24 07:03:43;;;;;;;11.35;8.75;;;10.00;68.80;;;;;;5002658;28;20049;-67
2020/12/24 07:06:09;;;;;;;10.80;7.78;;;10.10;68.90;;;;;;5002681;28;20026;-66
2020/12/24 07:08:35;;;;;;;11.02;7.60;;;10.10;68.90;;;;;;5002671;28;20026;-65
2020/12/24 07:11:03;;;;;;;11.55;7.82;;;10.00;68.80;;;;;;5002647;28;20057;-65
2020/12/24 07:13:34;;;;;;;10.93;8.38;;;10.10;68.90;;;;;;5002600;28;20076;-63
2020/12/24 07:16:05;;;;;;;11.00;7.63;;;10.10;68.90;;;;;;5002571;28;20041;-67
2020/12/24 07:18:31;;;;;;;12.80;7.30;;;10.00;68.80;;;;;;5002410;28;20054;-66
2020/12/24 07:21:06;;;;;;;11.73;7.70;;;10.10;68.90;;;;;;5002543;28;20191;-65
2020/12/24 07:23:51;;;;;;;12.13;8.20;;;10.10;68.80;;;;;;5002435;28;20037;-66
2020/12/24 07:26:17;;;;;;;11.07;7.18;;;10.10;68.80;;;;;;5002549;28;20041;-67
2020/12/24 07:28:42;;;;;;;9.95;7.43;;;10.00;68.70;;;;;;5002480;28;20245;-65
2020/12/24 07:31:10;;;;;;;13.23;8.63;;;10.10;68.90;;;;;;5002478;28;20031;-67
2020/12/24 07:33:44;;;;;;;10.45;6.88;;;10.10;68.80;;;;;;5002455;28;20348;-65
2020/12/24 07:36:10;;;;;;;10.07;7.68;;;10.10;68.90;;;;;;5002427;28;20062;-67
2020/12/24 07:38:36;;;;;;;8.85;7.30;;;10.10;68.80;;;;;;5002367;28;20026;-67
2020/12/24 07:41:02;;;;;;;10.18;8.00;;;10.10;68.80;;;;;;5002319;28;20026;-66
2020/12/24 07:43:27;;;;;;;11.68;8.55;;;10.10;68.70;;;;;;5002223;28;20029;-66
2020/12/24 07:45:53;;;;;;;10.80;7.85;;;10.10;68.70;;;;;;5002291;28;20030;-64
2020/12/24 07:48:23;;;;;;;10.23;7.80;;;10.10;68.70;;;;;;5002277;28;20018;-64
2020/12/24 07:50:52;;;;;;;9.38;7.40;;;10.10;68.70;;;;;;5002263;28;20045;-65
2020/12/24 07:53:26;;;;;;;10.27;7.22;;;10.10;68.70;;;;;;5002297;28;20105;-66
2020/12/24 07:55:52;;;;;;;9.85;7.28;;;10.10;68.80;;;;;;5002249;28;20395;-66
2020/12/24 07:58:19;;;;;;;11.27;7.60;;;10.10;68.70;;;;;;5002214;28;20029;-65
2020/12/24 08:00:47;;;;;;;11.25;7.63;;;10.10;68.60;;;;;;5002212;28;20214;-66
2020/12/24 08:03:15;;;;;;;11.60;7.50;;;10.10;68.60;;;;;;5002072;28;20314;-67
2020/12/24 08:05:41;;;;;;;10.50;7.70;;;10.10;68.60;;;;;;5000927;28;20467;-66
2020/12/24 08:08:07;;;;;;;8.48;6.70;;;10.10;68.60;;;;;;5002105;28;20041;-67
2020/12/24 08:10:40;;;;;;;12.13;8.38;;;10.10;68.70;;;;;;5003290;28;20309;-66
2020/12/24 08:13:06;;;;;;;9.57;7.05;;;10.10;69.30;;;;;;5005817;28;20372;-66
2020/12/24 08:15:34;;;;;;;11.20;8.02;;;10.10;68.60;;;;;;5005744;28;20263;-66
2020/12/24 08:18:06;;;;;;;9.57;7.07;;;10.10;69.20;;;;;;5005574;28;20054;-66
2020/12/24 08:20:57;;;;;;;10.98;7.53;;;10.10;68.50;;;;;;5005685;28;20040;-64
2020/12/24 08:23:51;;;;;;;9.38;7.40;;;10.10;68.50;;;;;;5005216;28;20022;-66
2020/12/24 08:26:18;;;;;;;10.13;7.30;;;10.10;68.40;;;;;;5011887;28;20094;-67
2020/12/24 08:29:05;;;;;;;11.35;7.43;;;10.10;68.40;;;;;;5005584;28;20321;-65
2020/12/24 08:31:32;;;;;;;10.50;7.78;;;10.10;68.30;;;;;;5005489;28;20290;-67
2020/12/24 08:33:58;;;;;;;9.32;6.72;;;10.20;68.30;;;;;;5005463;28;20187;-67
2020/12/24 08:36:26;;;;;;;10.52;7.25;;;10.20;68.30;;;;;;5005365;28;20041;-66
2020/12/24 08:39:05;;;;;;;11.23;8.43;;;10.20;68.20;;;;;;5005361;28;20054;-67
2020/12/24 08:41:32;;;;;;;;;;;10.20;68.30;;;;;;5004599;28;20038;-66
2020/12/24 08:44:01;;;;;;;9.88;6.95;;;10.20;68.20;;;;;;5005175;28;20132;-66
2020/12/24 08:46:27;;;;;;;9.88;7.45;;;10.20;68.30;;;;;;5005265;28;20022;-65
2020/12/24 08:48:53;;;;;;;8.75;6.85;;;10.20;68.30;;;;;;5005130;28;20114;-66
2020/12/24 08:51:20;;;;;;;9.23;7.10;;;10.20;68.30;;;;;;5005092;28;20031;-63
2020/12/24 08:53:46;;;;;;;9.82;6.80;;;10.20;68.20;;;;;;5005080;28;20030;-65
2020/12/24 08:56:16;;;;;;;9.43;6.78;;;10.20;68.80;;;;;;5005044;28;20049;-66
2020/12/24 08:58:55;;;;;;;10.57;7.10;;;10.20;68.30;;;;;;5004994;28;20022;-64
2020/12/24 09:01:21;;;;;;;11.48;7.78;;;10.20;68.20;;;;;;5005235;28;20018;-67
2020/12/24 09:03:48;;;;;;;9.10;6.95;;;10.20;68.20;;;;;;5004804;28;20022;-66
2020/12/24 09:06:18;;;;;;;8.98;6.68;;;10.20;68.30;;;;;;5004888;28;20030;-67
2020/12/24 09:08:50;;;;;;;11.68;7.47;;;10.20;68.20;;;;;;5004761;28;20069;-66
2020/12/24 09:11:29;;;;;;;11.82;8.38;;;10.20;68.20;;;;;;5004736;28;20018;-66
2020/12/24 09:14:04;;;;;;;9.00;6.70;;;10.20;68.30;;;;;;5004724;28;20038;-65
2020/12/24 09:16:34;;;;;;;10.52;7.50;;;10.20;68.20;;;;;;5004495;28;20061;-66
2020/12/24 09:19:08;;;;;;;9.45;7.45;;;10.20;68.20;;;;;;5004607;28;20053;-65
2020/12/24 09:21:35;;;;;;;9.38;7.20;;;10.20;68.40;;;;;;5004164;28;20025;-69
2020/12/24 09:24:08;;;;;;;10.73;7.63;;;10.20;68.30;;;;;;5004162;28;20245;-65
2020/12/24 09:26:43;;;;;;;10.85;7.68;;;10.20;68.30;;;;;;5004679;28;20026;-67
2020/12/24 09:29:08;;;;;;;10.95;7.65;;;10.20;68.20;;;;;;5004440;28;20341;-64
2020/12/24 09:31:34;;;;;;;8.57;6.97;;;10.30;68.20;;;;;;5004364;28;20022;-67
2020/12/24 09:34:00;;;;;;;9.40;6.82;;;10.20;68.10;;;;;;5004587;28;20053;-65
2020/12/24 09:36:25;;;;;;;9.07;7.40;;;10.20;68.20;;;;;;5004269;28;20088;-66
2020/12/24 09:38:51;;;;;;;11.20;7.93;;;10.20;68.20;;;;;;5004235;28;20588;-65
2020/12/24 09:41:17;;;;;;;10.32;7.47;;;10.20;68.40;;;;;;5004191;28;20093;-67
2020/12/24 09:43:43;;;;;;;8.63;6.30;;;10.20;68.40;;;;;;5004045;28;20022;-66
2020/12/24 09:46:08;;;;;;;10.38;7.05;;;10.20;68.20;;;;;;5004093;28;20026;-64
2020/12/24 09:48:34;;;;;;;9.82;7.90;;;10.30;68.20;;;;;;5004071;28;20026;-66
2020/12/24 09:51:00;;;;;;;10.70;7.25;;;10.30;68.20;;;;;;5003998;28;20102;-64
2020/12/24 09:53:25;;;;;;;10.50;7.53;;;10.30;68.20;;;;;;5003922;28;20057;-66
2020/12/24 09:55:51;;;;;;;9.43;7.75;;;10.30;68.20;;;;;;5003902;28;20028;-66
2020/12/24 09:58:17;;;;;;;10.27;7.63;;;10.30;68.20;;;;;;5003883;28;20022;-65
2020/12/24 10:00:43;;;;;;;10.35;7.57;;;10.30;68.10;;;;;;5003807;28;20522;-66
2020/12/24 10:03:09;;;;;;;10.82;7.45;;;10.30;68.10;;;;;;5003725;28;20026;-63
2020/12/24 10:05:35;;;;;;;8.80;6.88;;;10.30;68.10;;;;;;5003760;28;20044;-66
2020/12/24 10:08:00;;;;;;;10.80;7.50;;;10.30;68.10;;;;;;5003662;28;20310;-66
2020/12/24 10:10:26;;;;;;;10.75;8.02;;;10.30;68.10;;;;;;5003630;28;20022;-67
2020/12/24 10:12:52;;;;;;;10.25;7.65;;;10.30;68.20;;;;;;5003506;28;20046;-64
2020/12/24 10:15:18;;;;;;;9.63;7.20;;;10.30;68.20;;;;;;5003565;28;20050;-66
2020/12/24 10:17:43;;;;;;;9.13;6.82;;;10.30;68.20;;;;;;5003499;28;20069;-66
2020/12/24 10:20:09;;;;;;;9.93;7.28;;;10.30;68.10;;;;;;5003499;28;20325;-64
2020/12/24 10:22:35;;;;;;;9.85;6.72;;;10.30;68.20;;;;;;5003332;28;20073;-65
2020/12/24 10:25:00;;;;;;;10.57;6.97;;;10.30;68.10;;;;;;5003396;28;20018;-66
2020/12/24 10:27:26;;;;;;;9.18;7.45;;;10.30;68.10;;;;;;5003316;28;20018;-67
2020/12/24 10:29:52;;;;;;;9.95;7.47;;;10.30;68.10;;;;;;5003261;28;20026;-64
2020/12/24 10:32:17;;;;;;;8.82;6.65;;;10.30;68.20;;;;;;5003251;28;20205;-66
2020/12/24 10:34:43;;;;;;;7.95;6.35;;;10.30;68.20;;;;;;5002228;28;20033;-65
2020/12/24 10:37:09;;;;;;;9.18;6.75;;;10.30;68.20;;;;;;5003114;28;20229;-67
2020/12/24 10:39:35;;;;;;;10.02;7.45;;;10.30;68.20;;;;;;5003110;28;20034;-68
2020/12/24 10:42:00;;;;;;;9.82;7.20;;;10.30;68.10;;;;;;5002981;28;20093;-65
2020/12/24 10:44:26;;;;;;;10.52;7.65;;;10.30;68.10;;;;;;5003018;28;20022;-67
2020/12/24 10:46:56;;;;;;;9.80;6.60;;;10.30;68.00;;;;;;5002968;28;20025;-66
2020/12/24 10:49:22;;;;;;;10.73;7.13;;;10.30;67.90;;;;;;5002933;28;20018;-66
2020/12/24 10:51:48;;;;;;;8.50;6.40;;;10.30;67.80;;;;;;5003170;28;20025;-65
2020/12/24 10:54:14;;;;;;;9.35;7.10;;;10.30;67.80;;;;;;5002938;28;20076;-65
2020/12/24 10:56:40;;;;;;;10.25;7.18;;;10.30;67.90;;;;;;5002807;28;20026;-66
2020/12/24 10:59:06;;;;;;;9.25;6.80;;;10.30;68.00;;;;;;5002804;28;20085;-66
2020/12/24 11:01:31;;;;;;;8.07;6.47;;;10.30;68.00;;;;;;5002760;28;20022;-66
2020/12/24 11:03:57;;;;;;;8.25;6.88;;;10.20;68.10;;;;;;5002683;28;20305;-65
2020/12/24 11:06:24;;;;;;;9.23;6.45;;;10.20;68.10;;;;;;5002700;28;20073;-67
2020/12/24 11:08:51;;;;;;;9.15;6.88;;;10.20;68.10;;;;;;5002638;28;20061;-66
2020/12/24 11:11:17;;;;;;;8.93;6.65;;;10.30;68.20;;;;;;5002671;28;20018;-66
2020/12/24 11:13:45;;;;;;;9.85;7.35;;;10.20;68.10;;;;;;5002613;28;20022;-66
2020/12/24 11:16:24;;;;;;;8.73;6.90;;;10.20;68.20;;;;;;5002623;28;20018;-66
2020/12/24 11:18:50;;;;;;;;;;;10.20;68.20;;;;;;5002899;28;20050;-65
2020/12/24 11:21:20;;;;;;;9.88;6.95;;;10.20;68.20;;;;;;5002551;28;19901;-66
2020/12/24 11:23:46;;;;;;;8.95;6.40;;;10.20;68.20;;;;;;5002499;28;20097;-66
2020/12/24 11:26:23;;;;;;;9.10;6.70;;;10.20;68.30;;;;;;5002488;28;20022;-63
2020/12/24 11:28:50;;;;;;;9.40;6.90;;;10.20;68.30;;;;;;5002533;28;20026;-64
2020/12/24 11:31:25;;;;;;;10.02;7.45;;;10.20;68.30;;;;;;5002456;28;20053;-66
2020/12/24 11:33:51;;;;;;;10.05;7.07;;;10.20;68.40;;;;;;5002453;28;20022;-67
2020/12/24 11:36:17;;;;;;;9.50;6.60;;;10.20;68.30;;;;;;5002435;28;20065;-69
2020/12/24 11:38:44;;;;;;;9.45;7.15;;;10.20;68.40;;;;;;5002397;28;20026;-64
2020/12/24 11:41:14;;;;;;;10.15;7.03;;;10.10;68.40;;;;;;5002371;28;20026;-65
2020/12/24 11:43:40;;;;;;;8.50;6.70;;;10.20;68.50;;;;;;5002303;28;20022;-66
2020/12/24 11:46:08;;;;;;;8.73;6.45;;;10.20;68.40;;;;;;5004461;28;20065;-67
2020/12/24 11:48:34;;;;;;;8.65;6.40;;;10.20;68.40;;;;;;5006307;28;20226;-68
2020/12/24 11:50:59;;;;;;;8.40;6.70;;;10.20;68.40;;;;;;5006206;28;20018;-65
2020/12/24 11:53:25;;;;;;;8.93;6.57;;;10.20;68.40;;;;;;5006167;28;20053;-67
2020/12/24 11:55:51;;;;;;;9.35;7.32;;;10.20;68.30;;;;;;5006159;28;20022;-66
2020/12/24 11:58:17;;;;;;;8.85;6.93;;;10.20;68.30;;;;;;5006063;28;20029;-67
2020/12/24 12:00:44;;;;;;;7.80;6.30;;;10.20;68.30;;;;;;5006041;28;20037;-64
2020/12/24 12:03:09;;;;;;;7.82;6.07;;;10.20;68.40;;;;;;5005918;28;20018;-66
2020/12/24 12:05:35;;;;;;;9.48;7.00;;;10.20;68.30;;;;;;5005996;28;20049;-66
2020/12/24 12:08:01;;;;;;;8.18;6.45;;;10.20;68.30;;;;;;5004714;28;20014;-67
2020/12/24 12:10:26;;;;;;;9.18;6.53;;;10.20;68.40;;;;;;5005916;28;20029;-67
2020/12/24 12:12:52;;;;;;;8.73;6.30;;;10.20;68.20;;;;;;5005814;28;20018;-65
2020/12/24 12:15:18;;;;;;;8.45;6.10;;;10.20;68.40;;;;;;5005811;28;20023;-66
2020/12/24 12:17:44;;;;;;;7.55;6.25;;;10.20;68.40;;;;;;5005608;28;20164;-66
2020/12/24 12:20:09;;;;;;;9.45;6.68;;;10.20;68.10;;;;;;5005720;28;20063;-67
2020/12/24 12:22:36;;;;;;;7.88;6.20;;;10.20;68.10;;;;;;5005615;28;20218;-66
2020/12/24 12:25:01;;;;;;;9.90;7.28;;;10.20;68.20;;;;;;5005604;28;20029;-66
2020/12/24 12:27:27;;;;;;;8.77;6.68;;;10.20;68.20;;;;;;5005604;28;20018;-65
2020/12/24 12:29:53;;;;;;;10.60;7.22;;;10.20;68.20;;;;;;5005519;28;20018;-66
2020/12/24 12:32:18;;;;;;;7.03;5.70;;;10.20;68.20;;;;;;5005494;28;20069;-64
2020/12/24 12:34:48;;;;;;;8.32;6.03;;;10.20;68.20;;;;;;5005469;28;20077;-66
2020/12/24 12:37:15;;;;;;;8.40;5.97;;;10.20;68.30;;;;;;5005427;28;20035;-65
2020/12/24 12:39:40;;;;;;;8.75;6.45;;;10.20;68.30;;;;;;5005373;28;20318;-67
2020/12/24 12:42:06;;;;;;;9.98;6.88;;;10.20;68.30;;;;;;5005239;28;20028;-66
2020/12/24 12:44:32;;;;;;;7.55;6.30;;;10.20;68.30;;;;;;5005246;28;20022;-64